createdAt,value
2024-03-12T00:09:07.722Z,2.30
2024-03-12T00:11:35.152Z,2.28
2024-03-12T00:14:05.766Z,1.98
2024-03-12T00:16:35.310Z,2.28
2024-03-12T00:19:34.925Z,2.10
2024-03-12T00:24:29.638Z,2.00
2024-03-12T00:26:56.168Z,2.42
2024-03-12T00:29:22.926Z,2.17
2024-03-12T00:31:49.482Z,2.22
2024-03-12T00:34:27.031Z,2.60
2024-03-12T00:36:54.137Z,2.45
2024-03-12T00:39:23.179Z,2.70
2024-03-12T00:41:49.888Z,2.55
2024-03-12T00:44:16.393Z,2.78
2024-03-12T00:51:07.644Z,2.85
2024-03-12T00:53:34.197Z,2.80
2024-03-12T00:56:02.602Z,3.17
2024-03-12T00:58:29.616Z,2.90
2024-03-12T01:01:00.379Z,2.90
2024-03-12T01:03:27.433Z,2.85
2024-03-12T01:05:55.145Z,3.08
2024-03-12T01:11:39.163Z,3.42
2024-03-12T01:14:10.939Z,4.03
2024-03-12T01:16:38.077Z,4.25
2024-03-12T01:19:07.680Z,4.03
2024-03-12T01:21:36.166Z,4.00
2024-03-12T01:24:05.906Z,3.90
2024-03-12T01:26:33.096Z,3.60
2024-03-12T01:29:00.238Z,3.70
2024-03-12T01:31:29.224Z,3.67
2024-03-12T01:33:56.899Z,3.70
2024-03-12T01:36:35.628Z,3.95
2024-03-12T01:39:05.706Z,4.10
2024-03-12T01:41:33.631Z,3.92
2024-03-12T01:44:03.757Z,4.20
2024-03-12T01:46:35.443Z,4.35
2024-03-12T01:49:32.218Z,4.65
2024-03-12T01:52:22.044Z,4.93
2024-03-12T01:54:49.574Z,4.80
2024-03-12T01:57:57.869Z,4.40
2024-03-12T02:00:35.022Z,5.03
2024-03-12T02:03:02.109Z,4.32
2024-03-12T02:09:22.321Z,4.43
2024-03-12T02:11:49.054Z,4.28
2024-03-12T02:14:17.822Z,4.45
2024-03-12T02:19:31.728Z,4.07
2024-03-12T02:22:06.906Z,4.35
2024-03-12T02:24:51.906Z,4.30
2024-03-12T02:27:21.737Z,4.78
2024-03-12T02:29:51.098Z,4.90
2024-03-12T02:32:18.951Z,4.95
2024-03-12T02:39:44.820Z,4.95
2024-03-12T02:45:22.034Z,4.53
2024-03-12T02:47:49.384Z,4.70
2024-03-12T02:50:51.131Z,5.32
2024-03-12T02:53:58.149Z,4.80
2024-03-12T02:56:25.414Z,4.93
2024-03-12T03:02:34.437Z,4.32
2024-03-12T03:05:51.163Z,4.90
2024-03-12T03:08:18.631Z,5.53
2024-03-12T03:19:46.557Z,4.85
2024-03-12T03:22:13.626Z,5.60
2024-03-12T03:24:40.264Z,5.43
2024-03-12T03:31:33.551Z,5.20
2024-03-12T03:34:25.771Z,5.07
2024-03-12T03:36:53.521Z,5.35
2024-03-12T03:39:24.664Z,5.53
2024-03-12T03:41:56.564Z,5.35
2024-03-12T03:44:24.272Z,5.72
2024-03-12T03:46:51.507Z,5.88
2024-03-12T03:49:41.711Z,5.90
2024-03-12T03:53:03.212Z,5.45
2024-03-12T03:55:29.803Z,5.07
2024-03-12T03:57:56.522Z,5.45
2024-03-12T04:00:29.622Z,5.88
2024-03-12T04:03:01.638Z,6.13
2024-03-12T04:05:30.898Z,5.88
2024-03-12T04:10:30.760Z,5.68
2024-03-12T04:17:20.634Z,5.95
2024-03-12T04:19:53.963Z,5.60
2024-03-12T04:22:21.110Z,5.47
2024-03-12T04:24:47.860Z,5.07
2024-03-12T04:27:15.022Z,5.30
2024-03-12T04:29:45.230Z,5.80
2024-03-12T04:32:12.518Z,5.38
2024-03-12T04:35:23.484Z,5.00
2024-03-12T04:38:41.170Z,5.70
2024-03-12T04:41:22.298Z,4.97
2024-03-12T04:57:15.352Z,5.00
2024-03-12T05:04:22.412Z,5.60
2024-03-12T05:06:53.177Z,5.40
2024-03-12T05:16:47.521Z,5.95
2024-03-12T05:19:18.966Z,6.28
2024-03-12T05:21:46.777Z,6.57
2024-03-12T05:24:20.147Z,6.47
2024-03-12T05:26:55.678Z,6.20
2024-03-12T05:29:52.112Z,6.18
2024-03-12T05:32:44.392Z,6.07
2024-03-12T05:35:24.326Z,5.72
2024-03-12T05:38:13.566Z,6.28
2024-03-12T05:41:47.130Z,5.95
2024-03-12T05:45:07.377Z,6.03
2024-03-12T05:47:55.577Z,5.63
2024-03-12T05:50:28.059Z,5.18
2024-03-12T05:52:55.372Z,5.28
2024-03-12T05:55:28.797Z,5.68
2024-03-12T05:57:56.483Z,6.28
2024-03-12T06:00:23.075Z,6.50
2024-03-12T06:02:50.684Z,6.50
2024-03-12T06:05:27.371Z,5.63
2024-03-12T06:07:53.998Z,5.55
2024-03-12T06:11:06.179Z,6.15
2024-03-12T06:13:35.320Z,6.20
2024-03-12T06:16:04.798Z,6.10
2024-03-12T06:18:31.450Z,5.88
2024-03-12T06:20:58.466Z,6.35
2024-03-12T06:23:26.960Z,6.28
2024-03-12T06:25:53.958Z,6.13
2024-03-12T06:28:27.230Z,5.95
2024-03-12T06:30:54.084Z,6.43
2024-03-12T06:33:20.718Z,6.05
2024-03-12T06:35:49.119Z,6.15
2024-03-12T06:38:16.720Z,5.30
2024-03-12T06:40:44.013Z,5.82
2024-03-12T06:43:15.174Z,5.60
2024-03-12T06:45:42.431Z,5.93
2024-03-12T06:48:09.063Z,5.57
2024-03-12T06:50:36.085Z,5.65
2024-03-12T06:53:02.644Z,5.22
2024-03-12T06:55:29.286Z,6.32
2024-03-12T06:58:01.304Z,5.95
2024-03-12T07:00:37.667Z,5.47
2024-03-12T07:03:05.394Z,6.70
2024-03-12T07:05:34.493Z,6.35
2024-03-12T07:08:06.309Z,6.43
2024-03-12T07:10:33.632Z,6.43
2024-03-12T07:13:03.052Z,5.85
2024-03-12T07:15:32.527Z,6.10
2024-03-12T07:17:59.738Z,6.07
2024-03-12T07:20:29.065Z,5.82
2024-03-12T07:22:58.026Z,6.10
2024-03-12T07:25:26.286Z,6.90
2024-03-12T07:27:56.831Z,6.40
2024-03-12T07:30:25.654Z,5.82
2024-03-12T07:32:52.853Z,5.93
2024-03-12T07:35:19.498Z,5.90
2024-03-12T07:37:47.182Z,6.03
2024-03-12T07:40:17.142Z,5.97
2024-03-12T07:42:45.285Z,5.47
2024-03-12T07:45:13.885Z,5.68
2024-03-12T07:47:43.058Z,5.68
2024-03-12T07:50:12.282Z,5.68
2024-03-12T07:52:38.811Z,5.70
2024-03-12T07:55:07.060Z,6.15
2024-03-12T07:57:34.688Z,5.85
2024-03-12T08:00:01.432Z,6.60
2024-03-12T08:02:31.171Z,6.90
2024-03-12T08:04:58.746Z,6.95
2024-03-12T08:07:25.321Z,6.72
2024-03-12T08:09:52.035Z,6.93
2024-03-12T08:12:18.817Z,6.28
2024-03-12T08:14:45.807Z,6.55
2024-03-12T08:17:16.287Z,6.63
2024-03-12T08:19:49.364Z,7.30
2024-03-12T08:22:16.307Z,7.18
2024-03-12T08:24:47.933Z,6.85
2024-03-12T08:27:17.188Z,7.03
2024-03-12T08:29:44.691Z,7.88
2024-03-12T08:32:11.357Z,7.18
2024-03-12T08:34:38.008Z,6.72
2024-03-12T08:37:04.895Z,8.10
2024-03-12T08:39:31.505Z,7.82
2024-03-12T08:41:58.311Z,7.35
2024-03-12T08:44:24.907Z,7.50
2024-03-12T08:46:51.649Z,7.32
2024-03-12T08:49:18.491Z,7.35
2024-03-12T08:51:46.197Z,7.38
2024-03-12T08:54:14.760Z,7.43
2024-03-12T08:56:43.851Z,7.93
2024-03-12T08:59:10.680Z,7.30
2024-03-12T09:01:37.645Z,6.57
2024-03-12T09:04:04.702Z,7.53
2024-03-12T09:06:33.594Z,8.40
2024-03-12T09:09:00.244Z,8.38
2024-03-12T09:11:28.065Z,7.90
2024-03-12T09:13:55.305Z,7.93
2024-03-12T09:16:22.841Z,8.02
2024-03-12T09:18:49.507Z,8.10
2024-03-12T09:21:17.668Z,8.75
2024-03-12T09:23:52.516Z,8.85
2024-03-12T09:28:51.185Z,9.30
2024-03-12T09:31:20.055Z,9.95
2024-03-12T09:33:46.861Z,9.95
2024-03-12T09:36:15.273Z,11.40
2024-03-12T09:38:42.481Z,11.73
2024-03-12T09:41:10.605Z,11.43
2024-03-12T09:43:38.639Z,11.57
2024-03-12T09:46:05.483Z,12.02
2024-03-12T09:48:32.613Z,13.13
2024-03-12T09:51:02.267Z,12.27
2024-03-12T09:53:29.215Z,13.38
2024-03-12T09:55:56.335Z,13.52
2024-03-12T09:58:23.310Z,14.05
2024-03-12T10:00:49.889Z,13.45
2024-03-12T10:03:20.058Z,14.07
2024-03-12T10:05:47.484Z,14.00
2024-03-12T10:08:18.955Z,12.55
2024-03-12T10:10:53.062Z,14.65
2024-03-12T10:13:20.753Z,14.30
2024-03-12T10:15:55.352Z,14.07
2024-03-12T10:18:22.251Z,13.52
2024-03-12T10:20:57.236Z,13.90
2024-03-12T10:23:26.794Z,13.88
2024-03-12T10:25:56.556Z,14.90
2024-03-12T10:28:25.933Z,13.82
2024-03-12T10:30:52.542Z,13.95
2024-03-12T10:33:20.059Z,14.52
2024-03-12T10:35:47.003Z,16.45
2024-03-12T10:38:33.947Z,15.68
2024-03-12T10:41:22.412Z,16.17
2024-03-12T10:46:24.709Z,15.43
2024-03-12T10:48:52.138Z,16.33
2024-03-12T10:51:20.456Z,15.20
2024-03-12T10:53:54.219Z,15.63
2024-03-12T10:56:21.106Z,16.48
2024-03-12T10:58:48.605Z,17.63
2024-03-12T11:01:25.443Z,16.85
2024-03-12T11:03:57.329Z,17.30
2024-03-12T11:06:28.689Z,17.40
2024-03-12T11:09:00.570Z,17.23
2024-03-12T11:11:29.248Z,17.38
2024-03-12T11:13:57.986Z,17.75
2024-03-12T11:16:31.942Z,17.52
2024-03-12T11:19:00.095Z,16.75
2024-03-12T11:21:33.540Z,17.38
2024-03-12T11:24:00.253Z,16.63
2024-03-12T11:26:36.950Z,17.45
2024-03-12T11:29:03.745Z,16.23
2024-03-12T11:31:38.151Z,14.07
2024-03-12T11:34:05.998Z,15.25
2024-03-12T11:36:41.086Z,14.43
2024-03-12T11:39:18.242Z,14.52
2024-03-12T11:42:11.564Z,13.77
2024-03-12T11:44:56.321Z,12.15
2024-03-12T11:47:31.876Z,13.07
2024-03-12T11:50:03.048Z,12.23
2024-03-12T11:52:32.963Z,10.98
2024-03-12T11:55:00.468Z,12.00
2024-03-12T11:57:31.283Z,11.82
2024-03-12T11:59:58.632Z,11.90
2024-03-12T12:02:27.406Z,11.30
2024-03-12T12:04:58.721Z,10.70
2024-03-12T12:07:26.790Z,11.25
2024-03-12T12:09:54.266Z,11.98
2024-03-12T12:12:21.606Z,11.05
2024-03-12T12:14:53.530Z,12.10
2024-03-12T12:17:24.317Z,11.95
2024-03-12T12:20:17.836Z,12.88
2024-03-12T12:22:47.380Z,13.02
2024-03-12T12:25:20.005Z,13.20
2024-03-12T12:27:47.552Z,13.73
2024-03-12T12:30:15.738Z,15.27
2024-03-12T12:32:43.360Z,14.35
2024-03-12T12:35:13.158Z,14.73
2024-03-12T12:37:40.774Z,17.00
2024-03-12T12:40:10.586Z,16.35
2024-03-12T12:42:39.755Z,15.88
2024-03-12T12:45:09.733Z,16.75
2024-03-12T12:47:37.769Z,17.67
2024-03-12T12:50:04.706Z,16.55
2024-03-12T12:52:31.785Z,16.63
2024-03-12T12:54:59.041Z,15.93
2024-03-12T12:57:35.696Z,15.63
2024-03-12T13:00:16.228Z,15.75
2024-03-12T13:02:43.205Z,16.15
2024-03-12T13:05:11.106Z,17.10
2024-03-12T13:07:38.321Z,16.05
2024-03-12T13:10:15.973Z,16.33
2024-03-12T13:12:43.972Z,16.30
2024-03-12T13:15:31.677Z,16.15
2024-03-12T13:17:59.528Z,16.73
2024-03-12T13:20:26.232Z,17.70
2024-03-12T13:22:53.773Z,16.05
2024-03-12T13:25:23.263Z,16.88
2024-03-12T13:27:50.090Z,19.50
2024-03-12T13:30:16.830Z,17.80
2024-03-12T13:32:43.815Z,17.85
2024-03-12T13:35:11.126Z,17.95
2024-03-12T13:37:37.837Z,17.98
2024-03-12T13:40:06.506Z,17.85
2024-03-12T13:42:33.535Z,20.92
2024-03-12T13:45:00.190Z,20.17
2024-03-12T13:47:27.527Z,25.95
2024-03-12T13:49:54.572Z,19.48
2024-03-12T13:52:22.643Z,19.33
2024-03-12T13:54:50.131Z,18.90
2024-03-12T13:57:17.743Z,19.60
2024-03-12T13:59:45.546Z,18.13
2024-03-12T14:02:14.430Z,17.98
2024-03-12T14:04:41.075Z,18.38
2024-03-12T14:07:09.787Z,17.85
2024-03-12T14:09:36.400Z,18.10
2024-03-12T14:12:03.061Z,17.48
2024-03-12T14:14:33.637Z,17.50
2024-03-12T14:17:01.386Z,17.55
2024-03-12T14:19:27.968Z,17.63
2024-03-12T14:21:55.346Z,17.25
2024-03-12T14:24:21.967Z,17.55
2024-03-12T14:26:48.709Z,18.15
2024-03-12T14:29:17.330Z,18.73
2024-03-12T14:31:43.897Z,18.98
2024-03-12T14:34:10.819Z,18.95
2024-03-12T14:36:37.448Z,19.42
2024-03-12T14:39:08.693Z,18.58
2024-03-12T14:41:35.808Z,18.15
2024-03-12T14:44:02.271Z,18.13
2024-03-12T14:46:30.840Z,18.67
2024-03-12T14:48:58.519Z,17.13
2024-03-12T14:51:25.103Z,16.02
2024-03-12T14:53:51.636Z,15.43
2024-03-12T14:56:18.183Z,14.68
2024-03-12T14:58:44.659Z,14.57
2024-03-12T15:01:11.855Z,14.02
2024-03-12T15:03:38.510Z,13.55
2024-03-12T15:06:05.972Z,14.32
2024-03-12T15:08:32.591Z,13.82
2024-03-12T15:10:59.286Z,13.95
2024-03-12T15:13:25.884Z,13.65
2024-03-12T15:15:52.559Z,14.23
2024-03-12T15:18:21.543Z,14.23
2024-03-12T15:20:49.169Z,14.23
2024-03-12T15:23:16.768Z,14.60
2024-03-12T15:25:43.757Z,16.10
2024-03-12T15:28:10.384Z,15.48
2024-03-12T15:30:38.302Z,15.45
2024-03-12T15:33:07.831Z,15.47
2024-03-12T15:35:37.284Z,15.27
2024-03-12T15:38:05.967Z,17.10
2024-03-12T15:40:36.057Z,15.60
2024-03-12T15:43:03.171Z,16.98
2024-03-12T15:45:29.694Z,16.35
2024-03-12T15:47:56.309Z,15.75
2024-03-12T15:50:22.919Z,16.23
2024-03-12T15:52:49.481Z,16.45
2024-03-12T15:55:16.250Z,16.60
2024-03-12T15:57:45.641Z,16.02
2024-03-12T16:00:15.145Z,16.55
2024-03-12T16:02:42.376Z,16.20
2024-03-12T16:05:09.495Z,15.85
2024-03-12T16:07:36.006Z,16.25
2024-03-12T16:10:03.649Z,16.83
2024-03-12T16:12:31.122Z,15.60
2024-03-12T16:14:57.717Z,16.35
2024-03-12T16:17:25.411Z,15.50
2024-03-12T16:19:51.944Z,15.93
2024-03-12T16:22:18.720Z,16.15
2024-03-12T16:24:45.319Z,16.05
2024-03-12T16:27:11.972Z,14.65
2024-03-12T16:29:38.455Z,15.40
2024-03-12T16:32:08.870Z,15.40
2024-03-12T16:34:35.509Z,16.60
2024-03-12T16:37:02.940Z,16.05
2024-03-12T16:39:30.090Z,16.45
2024-03-12T16:41:59.687Z,17.83
2024-03-12T16:44:26.246Z,19.08
2024-03-12T16:46:56.673Z,20.70
2024-03-12T16:49:23.565Z,22.40
2024-03-12T16:51:51.207Z,23.73
2024-03-12T16:54:18.787Z,23.05
2024-03-12T16:56:45.819Z,23.38
2024-03-12T16:59:12.799Z,25.25
2024-03-12T17:01:39.913Z,25.02
2024-03-12T17:04:06.879Z,25.90
2024-03-12T17:06:34.644Z,26.92
2024-03-12T17:09:02.894Z,24.73
2024-03-12T17:11:29.843Z,25.95
2024-03-12T17:13:58.248Z,24.65
2024-03-12T17:16:27.269Z,24.10
2024-03-12T17:18:58.551Z,24.05
2024-03-12T17:21:29.755Z,23.67
2024-03-12T17:23:56.524Z,24.02
2024-03-12T17:26:23.075Z,23.75
2024-03-12T17:28:50.601Z,25.02
2024-03-12T17:31:18.098Z,24.30
2024-03-12T17:33:45.305Z,24.27
2024-03-12T17:36:19.934Z,25.55
2024-03-12T17:38:52.680Z,24.75
2024-03-12T17:41:20.008Z,25.10
2024-03-12T17:43:46.937Z,25.38
2024-03-12T17:46:16.456Z,25.25
2024-03-12T18:05:57.937Z,26.30
2024-03-12T18:08:28.653Z,26.60
2024-03-12T18:10:59.292Z,26.98
2024-03-12T18:13:26.637Z,27.15
2024-03-12T18:15:58.293Z,26.85
2024-03-12T18:18:25.793Z,27.15
2024-03-12T18:20:53.780Z,27.67
2024-03-12T18:23:20.924Z,27.02
2024-03-12T18:25:47.909Z,27.40
2024-03-12T18:28:15.727Z,27.25
2024-03-12T18:30:42.995Z,27.63
2024-03-12T18:33:16.571Z,27.95
2024-03-12T18:35:47.564Z,27.60
2024-03-12T18:38:18.068Z,27.77
2024-03-12T18:40:45.548Z,29.05
2024-03-12T18:43:16.562Z,27.88
2024-03-12T18:45:45.020Z,28.17
2024-03-12T18:48:12.672Z,28.27
2024-03-12T18:50:39.855Z,28.52
2024-03-12T18:53:08.010Z,28.30
2024-03-12T18:55:34.866Z,29.25
2024-03-12T18:58:01.944Z,29.63
2024-03-12T19:00:32.992Z,28.50
2024-03-12T19:29:41.964Z,29.10
2024-03-12T19:32:09.452Z,29.98
2024-03-12T19:34:37.480Z,31.80
2024-03-12T19:37:04.983Z,32.20
2024-03-12T19:39:32.134Z,33.75
2024-03-12T19:41:59.218Z,33.13
